Time;durP1;ratioP1;P1;durP2;ratioP2;P2;SDS_P1;SDS_P2;PMS_P1;PMS_P2;Temp;Humidity;BMP_temperature;BMP_pressure;BME280_temperature;BME280_humidity;BME280_pressure;Samples;Min_cycle;Max_cycle;Signal;HPM_P1;HPM_P2
2022/10/17 00:01:32;;;;;;;5.57;2.90;;;;;;;13.05;100.00;99118.00;4887865;29;20239;-63
2022/10/17 00:03:58;;;;;;;7.97;2.80;;;;;;;13.13;100.00;99125.13;4885868;29;20300;-63
2022/10/17 00:06:25;;;;;;;6.73;2.70;;;;;;;13.04;100.00;99118.19;4887249;29;20247;-64
2022/10/17 00:08:52;;;;;;;11.13;2.60;;;;;;;13.01;100.00;99124.53;4886695;29;20236;-64
2022/10/17 00:11:23;;;;;;;8.20;3.27;;;;;;;13.01;100.00;99121.09;4885005;29;21100;-64
2022/10/17 00:13:53;;;;;;;9.23;3.13;;;;;;;12.97;100.00;99125.81;4890313;29;20232;-65
2022/10/17 00:16:24;;;;;;;6.53;3.03;;;;;;;12.96;100.00;99126.78;4886538;29;20268;-65
2022/10/17 00:18:50;;;;;;;6.00;3.00;;;;;;;12.88;100.00;99137.22;4892345;29;20271;-65
2022/10/17 00:21:18;;;;;;;10.17;3.40;;;;;;;12.97;100.00;99129.28;4885243;29;20706;-64
2022/10/17 00:23:45;;;;;;;8.27;3.37;;;;;;;12.90;100.00;99122.16;4905938;29;20848;-65
2022/10/17 00:26:11;;;;;;;7.63;3.57;;;;;;;12.95;100.00;99138.25;4882590;29;20227;-64
2022/10/17 00:28:39;;;;;;;9.33;3.30;;;;;;;12.91;100.00;99132.50;4886775;29;20235;-64
2022/10/17 00:31:07;;;;;;;7.37;2.93;;;;;;;12.93;100.00;99134.97;4888390;29;20243;-64
2022/10/17 00:33:35;;;;;;;7.03;3.40;;;;;;;12.93;100.00;99146.28;4891910;29;20489;-64
2022/10/17 00:36:03;;;;;;;6.27;3.27;;;;;;;13.03;100.00;99146.16;4884930;29;20651;-64
2022/10/17 00:38:30;;;;;;;9.20;3.03;;;;;;;12.96;100.00;99147.75;4888594;29;20238;-64
2022/10/17 00:40:56;;;;;;;10.20;3.50;;;;;;;12.93;100.00;99148.06;4887566;29;20228;-64
2022/10/17 00:43:23;;;;;;;7.33;3.10;;;;;;;12.88;100.00;99156.41;4890368;29;20244;-64
2022/10/17 00:45:51;;;;;;;11.67;3.13;;;;;;;12.93;100.00;99150.69;4889504;29;20250;-64
2022/10/17 00:48:18;;;;;;;8.37;3.23;;;;;;;12.91;100.00;99156.09;4886681;29;20237;-64
2022/10/17 00:50:49;;;;;;;10.23;3.47;;;;;;;12.91;100.00;99150.84;4889061;29;20233;-64
2022/10/17 00:53:17;;;;;;;4.80;2.80;;;;;;;12.88;100.00;99164.25;4886179;29;20936;-64
2022/10/17 00:55:49;;;;;;;8.70;3.03;;;;;;;12.96;100.00;99158.25;4886714;29;20228;-65
2022/10/17 00:58:16;;;;;;;9.93;3.30;;;;;;;12.92;100.00;99156.91;4887285;29;20233;-64
2022/10/17 01:00:44;;;;;;;5.60;3.10;;;;;;;12.95;100.00;99164.44;4889130;29;21024;-64
2022/10/17 01:03:12;;;;;;;6.20;2.83;;;;;;;13.03;100.00;99153.22;4884929;29;20807;-64
2022/10/17 01:05:41;;;;;;;7.53;3.10;;;;;;;13.02;100.00;99157.63;4886152;29;20763;-64
2022/10/17 01:08:08;;;;;;;7.97;3.07;;;;;;;13.09;100.00;99163.91;4900447;29;20742;-64
2022/10/17 01:10:47;;;;;;;5.63;3.00;;;;;;;12.98;100.00;99167.59;4891561;29;20226;-64
2022/10/17 01:13:23;;;;;;;6.20;3.00;;;;;;;12.93;100.00;99167.25;4887867;29;20234;-64
2022/10/17 01:15:59;;;;;;;6.30;2.87;;;;;;;13.04;100.00;99168.78;4881999;29;20246;-64
2022/10/17 01:18:39;;;;;;;8.47;3.10;;;;;;;12.98;100.00;99162.38;4900372;29;20317;-64
2022/10/17 01:21:25;;;;;;;10.40;3.10;;;;;;;12.92;100.00;99172.63;4889337;29;21251;-64
2022/10/17 01:24:18;;;;;;;6.83;2.90;;;;;;;12.88;100.00;99173.91;4894737;29;20227;-64
2022/10/17 01:27:05;;;;;;;7.03;3.13;;;;;;;12.85;100.00;99175.03;4891820;29;20222;-65
2022/10/17 01:30:00;;;;;;;11.13;3.20;;;;;;;12.78;100.00;99166.94;4880816;29;20295;-65
2022/10/17 01:32:33;;;;;;;9.57;3.70;;;;;;;12.80;100.00;99167.63;4884462;29;20512;-65
2022/10/17 01:35:08;;;;;;;6.53;3.00;;;;;;;12.72;100.00;99167.56;4885707;29;20717;-65
2022/10/17 01:37:44;;;;;;;10.40;3.20;;;;;;;12.75;100.00;99167.25;4887722;29;20243;-65
2022/10/17 01:40:18;;;;;;;6.00;3.00;;;;;;;12.72;100.00;99158.88;4885359;29;20236;-65
2022/10/17 01:42:53;;;;;;;14.20;3.37;;;;;;;12.74;100.00;99157.75;4888708;29;20668;-65
2022/10/17 01:45:26;;;;;;;6.93;2.93;;;;;;;12.74;100.00;99160.34;4887759;29;20239;-65
2022/10/17 01:47:59;;;;;;;9.33;3.00;;;;;;;12.71;100.00;99158.06;4880056;29;20241;-64
2022/10/17 01:50:30;;;;;;;5.37;3.30;;;;;;;12.80;100.00;99156.31;4901963;29;20591;-64
2022/10/17 01:53:02;;;;;;;6.70;3.60;;;;;;;12.74;100.00;99154.31;4916318;29;20244;-64
2022/10/17 01:55:33;;;;;;;7.87;3.20;;;;;;;12.70;100.00;99152.00;4887872;29;20251;-64
2022/10/17 01:58:05;;;;;;;8.13;3.00;;;;;;;12.72;100.00;99156.25;4902148;29;20240;-64
2022/10/17 02:00:34;;;;;;;13.63;3.60;;;;;;;12.69;100.00;99154.78;4894417;29;20239;-64
2022/10/17 02:03:07;;;;;;;11.67;3.50;;;;;;;12.68;100.00;99153.13;4886969;29;20238;-64
2022/10/17 02:05:38;;;;;;;10.63;3.60;;;;;;;12.75;100.00;99148.91;4888540;29;20585;-64
2022/10/17 02:08:05;;;;;;;14.53;3.30;;;;;;;12.70;100.00;99149.38;4916234;29;20254;-64
2022/10/17 02:10:38;;;;;;;9.27;3.50;;;;;;;12.66;100.00;99155.09;4888145;29;20237;-64
2022/10/17 02:13:12;;;;;;;10.50;3.20;;;;;;;12.60;100.00;99147.84;4878659;29;20232;-64
2022/10/17 02:15:59;;;;;;;11.20;3.07;;;;;;;12.63;100.00;99144.91;4888633;29;20694;-64
2022/10/17 02:18:42;;;;;;;8.03;3.13;;;;;;;12.61;100.00;99149.47;4886476;29;20236;-65
2022/10/17 02:21:18;;;;;;;6.83;3.17;;;;;;;12.55;100.00;99150.88;4901479;29;20704;-65
2022/10/17 02:23:52;;;;;;;8.27;3.23;;;;;;;12.59;100.00;99141.75;4888827;29;20240;-65
2022/10/17 02:26:25;;;;;;;10.63;3.40;;;;;;;12.53;100.00;99143.19;4885421;29;20236;-65
2022/10/17 02:29:00;;;;;;;11.57;3.90;;;;;;;12.54;100.00;99139.59;4888696;29;20258;-64
2022/10/17 02:31:30;;;;;;;10.60;3.57;;;;;;;12.56;100.00;99142.06;4902189;29;20787;-64
2022/10/17 02:34:01;;;;;;;9.43;3.20;;;;;;;12.53;100.00;99144.97;4886234;29;20235;-64
2022/10/17 02:36:32;;;;;;;8.80;3.60;;;;;;;12.48;100.00;99137.59;4889109;29;20290;-64
2022/10/17 02:39:02;;;;;;;7.53;3.53;;;;;;;12.46;100.00;99147.38;4882020;29;20578;-65
2022/10/17 02:41:31;;;;;;;5.80;3.17;;;;;;;12.50;100.00;99153.97;4919251;29;20710;-64
2022/10/17 02:43:58;;;;;;;7.10;3.47;;;;;;;12.52;100.00;99153.81;4914365;29;20242;-64
2022/10/17 02:46:28;;;;;;;14.60;4.00;;;;;;;12.48;100.00;99155.91;4887034;29;20250;-64
2022/10/17 02:49:01;;;;;;;6.60;3.10;;;;;;;12.40;100.00;99158.47;4885002;29;20845;-64
2022/10/17 02:51:34;;;;;;;17.03;3.43;;;;;;;12.38;100.00;99165.63;4887698;29;20267;-64
2022/10/17 02:54:07;;;;;;;11.30;3.50;;;;;;;12.34;100.00;99159.84;4883659;29;20246;-64
2022/10/17 02:56:43;;;;;;;11.30;3.80;;;;;;;12.32;100.00;99166.22;4887360;29;20246;-64
2022/10/17 02:59:15;;;;;;;8.30;3.60;;;;;;;12.30;100.00;99165.56;4874333;29;20659;-65
2022/10/17 07:29:31;;;;;;;6.00;3.00;;;;;;;13.55;100.00;99354.34;4840342;29;20245;-57
2022/10/17 07:32:08;;;;;;;11.60;2.93;;;;;;;13.60;100.00;99364.38;4850716;29;20286;-57
2022/10/17 07:34:35;;;;;;;4.77;3.30;;;;;;;13.66;100.00;99375.09;4845431;29;20705;-58
2022/10/17 07:37:03;;;;;;;10.23;3.90;;;;;;;13.70;100.00;99370.34;4838463;29;20230;-56
2022/10/17 07:39:29;;;;;;;7.57;3.80;;;;;;;13.77;100.00;99373.22;4847522;29;20237;-56
2022/10/17 07:41:57;;;;;;;7.63;3.27;;;;;;;13.87;100.00;99379.16;4840989;29;20333;-56
2022/10/17 07:44:24;;;;;;;6.17;3.40;;;;;;;13.90;100.00;99385.91;4846742;29;20240;-56
2022/10/17 07:46:55;;;;;;;4.77;3.10;;;;;;;13.95;100.00;99373.97;4842456;29;20329;-56
2022/10/17 07:49:21;;;;;;;9.80;3.03;;;;;;;14.04;100.00;99380.09;4842063;29;20237;-57
2022/10/17 07:51:48;;;;;;;8.77;3.50;;;;;;;14.11;100.00;99382.94;4842431;29;20228;-54
2022/10/17 07:54:15;;;;;;;7.97;3.20;;;;;;;14.20;100.00;99395.13;4844150;29;20313;-55
2022/10/17 07:56:41;;;;;;;4.87;3.40;;;;;;;14.29;100.00;99388.94;4848418;29;20261;-55
2022/10/17 07:59:08;;;;;;;8.43;3.30;;;;;;;14.41;100.00;99386.84;4841784;29;20240;-54
2022/10/17 08:01:35;;;;;;;4.83;2.97;;;;;;;14.49;100.00;99386.09;4847231;29;20250;-56
2022/10/17 08:04:03;;;;;;;6.63;3.37;;;;;;;14.56;100.00;99381.00;4844183;29;20249;-55
2022/10/17 08:06:30;;;;;;;5.73;3.00;;;;;;;14.63;100.00;99381.22;4843934;29;20230;-56
2022/10/17 08:08:58;;;;;;;4.47;2.97;;;;;;;14.72;100.00;99391.63;4847071;29;20229;-55
2022/10/17 08:11:25;;;;;;;5.63;2.87;;;;;;;14.83;100.00;99398.41;4839492;29;20691;-55
2022/10/17 08:13:51;;;;;;;9.43;3.30;;;;;;;14.94;100.00;99393.81;4839900;29;20251;-56
2022/10/17 08:16:18;;;;;;;9.13;3.70;;;;;;;15.05;100.00;99390.88;4846499;29;20241;-57
2022/10/17 08:18:45;;;;;;;7.20;3.23;;;;;;;15.14;100.00;99395.19;4845708;29;20913;-56
2022/10/17 08:21:13;;;;;;;4.23;2.60;;;;;;;15.24;100.00;99399.47;4846574;29;20293;-55
2022/10/17 08:23:40;;;;;;;5.37;3.00;;;;;;;15.31;100.00;99405.72;4845432;29;20241;-56
2022/10/17 08:26:09;;;;;;;4.70;2.50;;;;;;;15.41;100.00;99408.19;4842722;29;20233;-56
2022/10/17 08:28:37;;;;;;;15.47;3.17;;;;;;;15.45;100.00;99402.47;4847417;29;20283;-56
2022/10/17 08:31:05;;;;;;;4.43;2.83;;;;;;;15.52;100.00;99407.88;4847665;29;20258;-56
2022/10/17 08:33:33;;;;;;;4.03;2.90;;;;;;;15.62;100.00;99410.38;4850385;29;20744;-56
2022/10/17 08:35:59;;;;;;;10.03;3.27;;;;;;;15.74;100.00;99416.94;4845433;29;20262;-56
2022/10/17 08:38:28;;;;;;;8.70;3.00;;;;;;;15.85;100.00;99422.88;4861675;29;20256;-56
2022/10/17 08:41:00;;;;;;;3.90;2.53;;;;;;;16.01;100.00;99417.59;4843682;29;20234;-56
2022/10/17 08:43:39;;;;;;;3.67;2.43;;;;;;;16.18;100.00;99423.69;4852534;29;20299;-55
2022/10/17 08:46:07;;;;;;;9.07;2.80;;;;;;;16.32;100.00;99419.53;4846928;29;20300;-57
2022/10/17 08:48:39;;;;;;;8.47;2.60;;;;;;;16.41;99.07;99422.13;4849561;29;20243;-57
2022/10/17 08:51:10;;;;;;;7.80;2.67;;;;;;;16.57;99.98;99423.88;4846272;29;20237;-57
2022/10/17 08:53:45;;;;;;;7.23;2.67;;;;;;;16.71;98.81;99428.44;4848190;29;20296;-57
2022/10/17 08:56:17;;;;;;;9.23;2.40;;;;;;;16.80;97.75;99427.41;4846382;29;20294;-56
2022/10/17 08:58:44;;;;;;;7.90;3.53;;;;;;;16.89;93.85;99424.75;4844578;29;20283;-58
2022/10/17 09:01:26;;;;;;;10.97;3.17;;;;;;;16.99;95.78;99416.66;4847476;29;20236;-58
2022/10/17 09:04:24;;;;;;;10.00;2.90;;;;;;;17.09;96.77;99420.72;4838070;29;20243;-57
2022/10/17 09:07:01;;;;;;;5.90;2.83;;;;;;;17.23;94.33;99427.06;4810528;29;20241;-57
2022/10/17 09:09:40;;;;;;;8.90;3.50;;;;;;;17.22;93.99;99424.59;4844198;29;20227;-55
2022/10/17 09:12:16;;;;;;;6.27;3.30;;;;;;;17.35;94.34;99421.38;4843608;29;20235;-56
2022/10/17 09:14:59;;;;;;;7.57;2.80;;;;;;;17.45;95.76;99424.63;4846397;29;20579;-57
2022/10/17 09:17:38;;;;;;;3.43;2.53;;;;;;;17.61;94.58;99433.41;4822956;29;20373;-56
2022/10/17 09:20:11;;;;;;;5.40;2.87;;;;;;;17.66;92.10;99433.72;4833128;29;20271;-58
2022/10/17 09:22:45;;;;;;;6.73;3.40;;;;;;;17.76;90.02;99441.38;4839057;29;20240;-57
2022/10/17 09:25:17;;;;;;;4.50;3.13;;;;;;;17.82;88.72;99451.22;4840693;29;20584;-57
2022/10/17 09:27:47;;;;;;;6.03;3.20;;;;;;;17.76;88.96;99444.00;4846161;29;20225;-57
2022/10/17 09:30:30;;;;;;;6.70;3.60;;;;;;;17.80;89.01;99442.66;4838240;29;20242;-58
2022/10/17 09:32:57;;;;;;;7.50;3.33;;;;;;;17.81;87.49;99444.31;4833233;29;20309;-57
2022/10/17 09:35:25;;;;;;;5.63;3.07;;;;;;;17.90;87.82;99442.44;4833200;29;20301;-57
2022/10/17 09:37:52;;;;;;;7.50;3.73;;;;;;;17.94;87.47;99444.53;4837116;29;20233;-57
2022/10/17 09:40:25;;;;;;;9.47;3.50;;;;;;;17.93;87.94;99439.44;4839927;29;20317;-57
2022/10/17 09:42:51;;;;;;;6.67;3.40;;;;;;;17.93;87.48;99442.06;4839012;29;20244;-56
2022/10/17 09:45:23;;;;;;;4.83;3.23;;;;;;;17.99;88.52;99446.66;4839426;29;20233;-57
2022/10/17 09:47:57;;;;;;;6.87;3.30;;;;;;;18.03;87.94;99450.56;4831006;29;20274;-57
2022/10/17 09:50:27;;;;;;;6.20;3.80;;;;;;;17.96;87.61;99447.00;4841810;29;20723;-56
2022/10/17 09:52:55;;;;;;;8.27;3.87;;;;;;;17.98;86.14;99456.38;4840175;29;20767;-57
2022/10/17 09:55:31;;;;;;;9.03;3.90;;;;;;;18.10;86.88;99459.41;4840585;29;20246;-57
2022/10/17 09:57:59;;;;;;;8.17;4.13;;;;;;;18.12;86.06;99468.00;4838926;29;21013;-56
2022/10/17 10:00:28;;;;;;;8.17;3.77;;;;;;;18.14;86.17;99466.00;4841847;29;20612;-56
2022/10/17 10:03:17;;;;;;;8.60;3.80;;;;;;;18.19;86.33;99462.00;4838382;29;20233;-57
2022/10/17 10:05:59;;;;;;;8.13;3.70;;;;;;;18.23;85.93;99463.28;4841260;29;21748;-57
2022/10/17 10:08:29;;;;;;;8.17;4.20;;;;;;;18.23;85.27;99471.19;4836192;29;20287;-56
2022/10/17 10:11:03;;;;;;;6.63;3.83;;;;;;;18.35;85.92;99474.25;4839491;29;20313;-55
2022/10/17 10:13:32;;;;;;;13.03;4.30;;;;;;;18.45;89.19;99472.16;4837986;29;20236;-56
2022/10/17 10:16:15;;;;;;;6.67;3.63;;;;;;;18.48;86.86;99460.38;4836268;29;20325;-55
2022/10/17 10:18:42;;;;;;;8.03;3.60;;;;;;;18.59;90.76;99452.00;4838840;29;20308;-56
2022/10/17 10:21:11;;;;;;;6.00;3.20;;;;;;;18.66;92.68;99452.91;4838680;29;21997;-58
2022/10/17 10:23:39;;;;;;;5.93;4.00;;;;;;;18.66;91.14;99450.28;4842382;29;20234;-57
2022/10/17 10:26:18;;;;;;;9.03;4.47;;;;;;;18.85;88.39;99450.72;4837717;29;20291;-57
2022/10/17 10:28:52;;;;;;;13.37;3.50;;;;;;;18.97;88.65;99459.84;4838641;29;20252;-56
2022/10/17 10:31:27;;;;;;;7.23;2.67;;;;;;;19.16;80.30;99449.66;4839160;29;20303;-57
2022/10/17 10:33:54;;;;;;;7.93;2.57;;;;;;;19.38;76.85;99458.47;4835414;29;20733;-57
2022/10/17 10:36:22;;;;;;;4.73;1.90;;;;;;;19.60;71.01;99456.63;4838840;29;20705;-57
2022/10/17 10:38:54;;;;;;;5.93;2.20;;;;;;;19.83;73.20;99455.63;4835543;29;20264;-58
2022/10/17 10:41:22;;;;;;;5.57;2.13;;;;;;;19.95;74.79;99458.59;4841187;29;20240;-57
2022/10/17 10:43:51;;;;;;;3.30;2.20;;;;;;;20.18;73.70;99457.53;4836253;29;20592;-58
2022/10/17 10:46:20;;;;;;;6.53;3.13;;;;;;;20.38;72.88;99464.81;4837748;29;20234;-57
2022/10/17 10:48:51;;;;;;;4.97;3.10;;;;;;;20.57;75.58;99472.06;4838443;29;20245;-56
2022/10/17 10:51:23;;;;;;;5.27;3.00;;;;;;;20.69;70.90;99469.66;4839715;29;20230;-56
2022/10/17 10:53:55;;;;;;;7.50;2.80;;;;;;;20.67;68.15;99468.25;4836847;29;21168;-57
2022/10/17 10:56:29;;;;;;;3.07;2.33;;;;;;;20.71;70.06;99472.94;4837836;29;20298;-56
2022/10/17 10:59:00;;;;;;;4.90;2.67;;;;;;;20.80;69.78;99463.00;4833710;29;20303;-58
2022/10/17 11:01:33;;;;;;;8.53;3.00;;;;;;;20.76;73.16;99473.19;4839791;29;20240;-58
2022/10/17 11:04:12;;;;;;;6.30;2.40;;;;;;;20.88;65.41;99464.69;4835250;29;20238;-58
2022/10/17 11:06:43;;;;;;;3.37;2.83;;;;;;;20.92;72.34;99471.25;4838285;29;20612;-58
2022/10/17 11:09:19;;;;;;;6.37;2.97;;;;;;;21.05;71.62;99476.59;4836617;29;20256;-58
2022/10/17 11:11:56;;;;;;;9.43;2.80;;;;;;;21.10;68.24;99478.66;4836211;29;20992;-58
2022/10/17 11:14:35;;;;;;;5.80;2.60;;;;;;;21.02;69.88;99479.66;4834854;29;20258;-57
2022/10/17 11:17:10;;;;;;;3.90;2.73;;;;;;;21.01;70.23;99485.97;4836714;29;20274;-58
2022/10/17 11:19:42;;;;;;;6.77;2.80;;;;;;;21.05;70.08;99497.00;4839871;29;20254;-58
2022/10/17 11:22:15;;;;;;;7.70;2.77;;;;;;;21.24;70.79;99495.44;4835340;29;20744;-57
2022/10/17 11:24:48;;;;;;;4.73;2.80;;;;;;;21.28;67.69;99498.53;4852751;29;20582;-55
2022/10/17 11:27:16;;;;;;;4.97;2.97;;;;;;;21.24;71.35;99492.78;4832943;29;20382;-57
2022/10/17 11:29:45;;;;;;;4.03;2.90;;;;;;;21.21;72.82;99499.31;4838361;29;20252;-58
2022/10/17 11:32:17;;;;;;;7.40;2.80;;;;;;;21.30;69.32;99499.94;4837201;29;20223;-57
2022/10/17 11:34:46;;;;;;;7.50;2.57;;;;;;;21.32;68.34;99497.91;4835872;29;20239;-57
2022/10/17 11:37:18;;;;;;;4.13;2.50;;;;;;;21.42;68.94;99502.03;4835452;29;20247;-58
2022/10/17 11:39:51;;;;;;;6.83;2.80;;;;;;;21.48;66.16;99507.38;4836147;29;20242;-59
2022/10/17 11:42:23;;;;;;;3.70;2.60;;;;;;;21.64;64.82;99513.34;4840726;29;20665;-58
2022/10/17 11:45:04;;;;;;;4.30;2.30;;;;;;;21.78;62.13;99506.22;4833199;29;20331;-58
2022/10/17 11:47:38;;;;;;;2.80;2.20;;;;;;;21.79;60.29;99508.66;4838492;29;20606;-58
2022/10/17 11:50:18;;;;;;;5.80;2.03;;;;;;;21.98;56.79;99516.84;4839111;29;20643;-58
2022/10/17 11:52:51;;;;;;;4.67;2.10;;;;;;;21.95;57.75;99511.94;4838438;29;20713;-58
2022/10/17 11:55:21;;;;;;;5.50;2.00;;;;;;;21.97;57.54;99508.06;4837375;29;20251;-57
2022/10/17 11:58:06;;;;;;;4.17;2.17;;;;;;;22.13;55.78;99514.00;4834392;29;20239;-58
2022/10/17 12:00:43;;;;;;;5.60;1.90;;;;;;;22.15;56.44;99514.63;4838241;29;20364;-58
2022/10/17 12:03:26;;;;;;;2.77;1.80;;;;;;;22.13;56.40;99503.38;4833142;29;20242;-59
2022/10/17 12:05:58;;;;;;;6.03;1.87;;;;;;;22.26;55.43;99499.88;4837137;29;20312;-58
2022/10/17 12:08:33;;;;;;;7.20;1.97;;;;;;;22.14;56.69;99502.34;4836938;29;20252;-59
2022/10/17 12:11:04;;;;;;;6.60;2.07;;;;;;;22.06;57.64;99503.38;4834571;29;20266;-57
2022/10/17 12:13:50;;;;;;;5.57;2.03;;;;;;;22.24;55.42;99497.44;4849952;29;20706;-58
2022/10/17 12:16:50;;;;;;;6.37;2.00;;;;;;;22.41;54.68;99495.16;4834337;29;20244;-57
2022/10/17 12:19:27;;;;;;;3.57;1.80;;;;;;;22.46;54.91;99488.44;4838940;29;20231;-57
2022/10/17 12:21:55;;;;;;;9.63;2.00;;;;;;;;;;4836108;29;20258;-59
2022/10/17 12:24:32;;;;;;;8.27;2.23;;;;;;;22.43;54.25;99494.94;4836687;29;20615;-57
2022/10/17 12:27:22;;;;;;;6.83;2.10;;;;;;;22.53;54.79;99497.22;4834200;29;20337;-58
2022/10/17 12:29:58;;;;;;;4.80;1.73;;;;;;;22.56;54.41;99494.16;4838646;29;20627;-58
2022/10/17 12:32:24;;;;;;;4.32;1.90;;;;;;;22.72;51.51;99492.88;4840218;29;20545;-58
2022/10/17 12:34:52;;;;;;;6.77;2.07;;;;;;;22.73;52.58;99493.69;4834396;29;20236;-57
2022/10/17 12:37:49;;;;;;;6.13;1.93;;;;;;;22.69;52.47;99498.59;4835731;29;20359;-57
2022/10/17 12:40:49;;;;;;;4.23;1.80;;;;;;;22.64;53.69;99493.91;4824474;29;20259;-59
2022/10/17 12:43:54;;;;;;;3.27;1.90;;;;;;;22.72;51.66;99489.41;4836908;29;20253;-57
2022/10/17 12:46:58;;;;;;;3.50;1.90;;;;;;;22.65;52.59;99489.41;4832901;29;20242;-58
2022/10/17 12:49:39;;;;;;;8.30;2.17;;;;;;;22.59;54.79;99485.75;4834525;29;20232;-58
2022/10/17 12:52:19;;;;;;;3.40;1.77;;;;;;;22.49;53.17;99485.34;4834831;29;20616;-59
2022/10/17 12:54:50;;;;;;;5.43;1.60;;;;;;;22.61;51.62;99494.34;4835789;29;20572;-59
2022/10/17 12:57:22;;;;;;;2.70;1.80;;;;;;;22.61;55.15;99494.34;4839371;29;20246;-58
2022/10/17 12:59:49;;;;;;;3.40;2.00;;;;;;;22.65;53.75;99494.72;4834385;29;20243;-58
2022/10/17 13:02:21;;;;;;;5.35;1.70;;;;;;;22.73;53.40;99494.50;4840304;29;20349;-56
2022/10/17 13:04:50;;;;;;;3.27;1.80;;;;;;;22.77;53.86;99490.38;4836227;29;20811;-57
2022/10/17 13:07:20;;;;;;;7.27;2.00;;;;;;;22.84;53.33;99485.03;4850637;29;20260;-58
2022/10/17 13:09:47;;;;;;;4.47;1.83;;;;;;;23.02;52.70;99480.88;4833564;29;20246;-58
2022/10/17 13:12:20;;;;;;;6.37;1.50;;;;;;;23.02;51.15;99484.38;4838180;29;20243;-58
2022/10/17 13:14:49;;;;;;;2.13;1.60;;;;;;;23.03;52.46;99483.34;4837223;29;20705;-57
2022/10/17 13:17:25;;;;;;;5.67;1.90;;;;;;;23.19;51.30;99486.53;4838524;29;20258;-58
2022/10/17 13:19:52;;;;;;;7.17;1.67;;;;;;;23.14;52.97;99480.00;4837969;29;20244;-57
2022/10/17 13:22:21;;;;;;;3.27;1.73;;;;;;;23.12;52.38;99474.09;4840366;29;20236;-57
2022/10/17 13:24:49;;;;;;;4.83;1.77;;;;;;;23.08;51.89;99472.03;4839094;29;20390;-61
2022/10/17 13:27:27;;;;;;;2.83;1.80;;;;;;;23.21;51.40;99479.97;4838144;29;20683;-56
2022/10/17 13:29:56;;;;;;;4.10;1.87;;;;;;;23.19;53.05;99479.34;4838532;29;20324;-55
2022/10/17 13:32:25;;;;;;;4.47;1.80;;;;;;;23.27;50.89;99487.13;4837950;29;20323;-62
2022/10/17 13:35:12;;;;;;;7.10;1.80;;;;;;;23.43;49.50;99479.69;4837803;29;20251;-62
2022/10/17 13:37:41;;;;;;;6.87;2.10;;;;;;;23.17;52.05;99481.41;4838034;29;20586;-62
2022/10/17 13:40:16;;;;;;;3.37;1.90;;;;;;;23.23;51.62;99480.59;4836055;29;20242;-62
2022/10/17 13:42:42;;;;;;;4.50;1.80;;;;;;;23.28;52.33;99485.31;4839015;29;20301;-62
2022/10/17 13:45:18;;;;;;;6.20;2.00;;;;;;;23.21;51.67;99479.16;4834574;29;20264;-62
2022/10/17 13:47:46;;;;;;;4.97;2.00;;;;;;;23.21;50.18;99471.97;4794272;29;20240;-62
2022/10/17 13:50:31;;;;;;;9.83;2.03;;;;;;;23.05;49.50;99475.13;4847164;29;20276;-62
2022/10/17 13:53:15;;;;;;;5.10;1.80;;;;;;;23.12;50.87;99474.09;4837885;29;20240;-62
2022/10/17 13:55:54;;;;;;;4.77;1.90;;;;;;;23.28;53.03;99482.63;4842179;29;20261;-62
2022/10/17 13:58:20;;;;;;;2.47;1.63;;;;;;;23.27;52.40;99478.34;4837004;29;20241;-62
2022/10/17 14:00:51;;;;;;;8.13;2.20;;;;;;;23.32;51.79;99478.50;4828109;29;20234;-62
2022/10/17 14:03:20;;;;;;;5.40;2.00;;;;;;;23.26;51.83;99477.50;4851241;29;20253;-62
2022/10/17 14:06:03;;;;;;;5.30;2.10;;;;;;;23.26;52.46;99479.38;4839290;29;20229;-63
2022/10/17 14:08:31;;;;;;;5.23;1.90;;;;;;;23.19;50.94;99470.56;4840983;29;20255;-62
2022/10/17 14:10:59;;;;;;;4.10;2.30;;;;;;;23.33;50.93;99474.78;4838391;29;20229;-62
2022/10/17 14:13:28;;;;;;;3.47;2.10;;;;;;;23.44;51.16;99481.31;4839786;29;20236;-62
2022/10/17 14:15:59;;;;;;;8.20;2.60;;;;;;;23.44;51.15;99487.44;4834972;29;20734;-62
2022/10/17 14:18:30;;;;;;;4.10;2.20;;;;;;;23.55;50.12;99485.13;4840848;29;20781;-62
2022/10/17 14:20:57;;;;;;;6.43;2.00;;;;;;;23.56;50.15;99482.25;4837737;29;20248;-62
2022/10/17 14:23:30;;;;;;;2.33;1.80;;;;;;;23.54;51.71;99483.50;4838902;29;20251;-62
2022/10/17 14:26:06;;;;;;;4.90;2.00;;;;;;;23.37;51.77;99481.34;4825953;29;20238;-63
2022/10/17 14:28:34;;;;;;;5.30;2.13;;;;;;;23.27;53.64;99486.34;4846818;29;20251;-62
2022/10/17 14:31:20;;;;;;;9.10;2.40;;;;;;;23.12;53.66;99482.06;4830545;29;20240;-63
2022/10/17 14:33:50;;;;;;;6.73;2.10;;;;;;;23.13;53.71;99482.88;4829577;29;20236;-63
2022/10/17 14:36:17;;;;;;;4.13;2.30;;;;;;;23.15;53.97;99486.13;4838311;29;20709;-62
2022/10/17 14:38:49;;;;;;;4.53;2.03;;;;;;;23.20;54.92;99493.50;4809052;29;20314;-62
2022/10/17 14:41:23;;;;;;;7.13;2.20;;;;;;;23.20;54.23;99493.50;4800665;29;20255;-62
2022/10/17 14:43:58;;;;;;;7.80;2.27;;;;;;;23.22;53.66;99492.25;4832994;29;20299;-62
2022/10/17 14:46:28;;;;;;;5.37;2.30;;;;;;;23.29;53.24;99497.59;4841873;29;20246;-62
2022/10/17 14:49:04;;;;;;;5.83;2.10;;;;;;;23.33;52.04;99495.31;4834834;29;20681;-61
2022/10/17 14:51:32;;;;;;;3.80;2.13;;;;;;;23.36;53.46;99493.03;4838575;29;20752;-60
2022/10/17 14:54:19;;;;;;;4.83;1.70;;;;;;;23.49;52.74;99491.31;4835594;29;20233;-61
2022/10/17 14:56:50;;;;;;;4.00;1.93;;;;;;;23.48;52.57;99495.00;4836355;29;20280;-62
2022/10/17 14:59:21;;;;;;;4.87;1.70;;;;;;;23.51;53.17;99489.25;4840685;29;20245;-61
2022/10/17 15:01:47;;;;;;;5.27;1.97;;;;;;;23.52;51.30;99491.72;4838073;29;20236;-60
2022/10/17 15:04:15;;;;;;;5.60;2.37;;;;;;;23.52;54.26;99497.03;4838287;29;20711;-60
2022/10/17 15:06:42;;;;;;;6.10;1.67;;;;;;;23.51;57.10;99505.22;4839785;29;20283;-62
2022/10/17 15:09:12;;;;;;;5.27;2.13;;;;;;;23.37;53.92;99510.63;4834510;29;20703;-61
2022/10/17 15:11:38;;;;;;;5.90;2.43;;;;;;;23.34;56.39;99513.72;4836074;29;20232;-59
2022/10/17 15:14:05;;;;;;;6.00;2.37;;;;;;;23.22;59.76;99520.75;4836965;29;20310;-59
2022/10/17 15:16:34;;;;;;;9.40;2.57;;;;;;;23.03;61.01;99514.47;4838111;29;20237;-60
2022/10/17 15:19:01;;;;;;;6.13;2.07;;;;;;;22.89;61.66;99516.38;4834887;29;20250;-60
2022/10/17 15:21:29;;;;;;;4.03;2.17;;;;;;;22.88;61.13;99515.53;4837212;29;20248;-60
2022/10/17 15:23:56;;;;;;;0.00;0.00;;;;;;;22.84;61.77;99515.16;4836550;29;21017;-60
2022/10/17 15:26:26;;;;;;;0.00;0.00;;;;;;;22.83;62.26;99518.00;4836752;29;20299;-61
2022/10/17 15:28:53;;;;;;;0.00;0.00;;;;;;;22.78;64.32;99512.50;4836134;29;20236;-60
2022/10/17 15:31:22;;;;;;;0.00;0.00;;;;;;;22.65;64.84;99505.38;4840214;29;20299;-60
2022/10/17 15:33:48;;;;;;;0.00;0.00;;;;;;;22.52;65.32;99500.91;4834103;29;20252;-61
2022/10/17 15:36:23;;;;;;;0.00;0.00;;;;;;;22.37;65.66;99504.56;4839223;29;20242;-61
2022/10/17 15:38:54;;;;;;;0.00;0.00;;;;;;;22.18;68.30;99508.91;4833622;29;20333;-61
2022/10/17 15:41:21;;;;;;;0.00;0.00;;;;;;;22.07;69.10;99506.84;4838799;29;20262;-59
2022/10/17 15:43:48;;;;;;;0.00;0.00;;;;;;;21.91;71.09;99508.88;4834302;29;20295;-60
2022/10/17 15:46:20;;;;;;;0.00;0.00;;;;;;;21.72;72.01;99502.53;4835757;29;20252;-61
2022/10/17 15:48:47;;;;;;;0.00;0.00;;;;;;;21.53;71.76;99498.78;4835887;29;20264;-60
2022/10/17 15:51:16;;;;;;;0.00;0.00;;;;;;;21.31;72.71;99503.44;4840234;29;20243;-59
2022/10/17 15:53:43;;;;;;;0.00;0.00;;;;;;;21.07;73.41;99494.97;4838758;29;20270;-60
2022/10/17 15:56:21;;;;;;;0.00;0.00;;;;;;;20.76;75.60;99507.66;4837000;29;20243;-60
2022/10/17 15:58:48;;;;;;;0.00;0.00;;;;;;;20.55;76.30;99502.44;4836636;29;20240;-62
2022/10/17 16:01:21;;;;;;;0.00;0.00;;;;;;;20.38;77.36;99505.38;4836165;29;20387;-61
2022/10/17 16:03:49;;;;;;;0.00;0.00;;;;;;;20.20;79.57;99511.19;4832893;29;20234;-61
2022/10/17 16:06:16;;;;;;;0.00;0.00;;;;;;;20.00;80.12;99516.31;4836186;29;20652;-61
2022/10/17 16:08:43;;;;;;;0.00;0.00;;;;;;;19.84;77.83;99518.19;4839855;29;20648;-60
2022/10/17 16:11:16;;;;;;;0.00;0.00;;;;;;;19.69;79.20;99523.53;4835362;29;20295;-60
2022/10/17 16:13:48;;;;;;;0.00;0.00;;;;;;;19.48;81.67;99529.63;4836993;29;20236;-59
2022/10/17 16:16:14;;;;;;;0.00;0.00;;;;;;;19.31;83.94;99529.03;4836182;29;20238;-61
2022/10/17 16:18:41;;;;;;;0.00;0.00;;;;;;;19.16;85.06;99531.69;4835209;29;20255;-60
2022/10/17 16:21:10;;;;;;;0.00;0.00;;;;;;;19.03;85.33;99524.41;4835647;29;20245;-58